Time;durP1;ratioP1;P1;durP2;ratioP2;P2;SDS_P1;SDS_P2;PMS_P1;PMS_P2;Temp;Humidity;BMP_temperature;BMP_pressure;BME280_temperature;BME280_humidity;BME280_pressure;Samples;Min_cycle;Max_cycle;Signal;HPM_P1;HPM_P2
2021/12/27 00:00:54;;;;;;;191.25;68.15;;;;;;;-13.44;76.49;97885.16;1733886;82;20989;-57
2021/12/27 00:03:21;;;;;;;90.87;34.13;;;;;;;-13.40;76.60;97891.78;1736200;81;20993;-58
2021/12/27 00:05:48;;;;;;;123.45;44.73;;;;;;;-13.28;76.79;97887.27;1736242;82;21503;-58
2021/12/27 00:08:15;;;;;;;192.77;76.37;;;;;;;-13.31;76.71;97885.42;1736537;82;20980;-58
2021/12/27 00:10:42;;;;;;;192.35;66.87;;;;;;;-13.38;76.77;97879.91;1736468;82;21001;-57
2021/12/27 00:13:09;;;;;;;141.50;50.90;;;;;;;-13.35;77.23;97879.63;1736557;82;21373;-58
2021/12/27 00:15:36;;;;;;;194.67;75.03;;;;;;;-13.24;77.13;97884.75;1736277;82;21024;-58
2021/12/27 00:18:03;;;;;;;178.15;66.17;;;;;;;-13.26;77.74;97876.70;1717139;82;21360;-58
2021/12/27 00:20:32;;;;;;;182.80;65.70;;;;;;;-13.33;77.37;97874.27;1713519;83;20918;-57
2021/12/27 00:22:59;;;;;;;185.40;66.97;;;;;;;-13.32;76.88;97879.38;1720346;82;20984;-58
2021/12/27 00:25:26;;;;;;;171.65;55.85;;;;;;;-13.45;76.09;97884.00;1740256;82;20992;-57
2021/12/27 00:27:53;;;;;;;184.85;61.80;;;;;;;-13.44;76.11;97881.25;1746588;80;21039;-57
2021/12/27 00:30:20;;;;;;;185.70;64.82;;;;;;;-13.50;76.36;97876.59;1745328;81;22137;-57
2021/12/27 00:32:48;;;;;;;182.17;65.60;;;;;;;-13.50;77.00;97871.83;1750782;81;20948;-57
2021/12/27 00:35:17;;;;;;;152.02;50.12;;;;;;;-13.45;77.15;97884.82;1751736;82;32530;-57
2021/12/27 00:37:45;;;;;;;142.55;54.45;;;;;;;-13.37;77.00;97878.12;1736785;82;21007;-57
2021/12/27 00:40:12;;;;;;;177.62;63.20;;;;;;;-13.36;76.74;97875.86;1736344;82;21504;-58
2021/12/27 00:42:39;;;;;;;116.57;42.73;;;;;;;-13.40;77.41;97872.70;1736440;82;21278;-57
2021/12/27 00:45:07;;;;;;;128.20;49.83;;;;;;;-13.29;77.32;97868.67;1736455;82;21032;-57
2021/12/27 00:47:34;;;;;;;;;;;;;;;-13.32;77.00;97865.52;1739199;82;21410;-57
2021/12/27 00:50:02;;;;;;;142.65;56.05;;;;;;;-13.31;78.06;97858.86;1736672;81;20304;-58
2021/12/27 00:52:30;;;;;;;142.43;52.25;;;;;;;-13.23;77.65;97862.11;1736859;82;21009;-57
2021/12/27 00:54:57;;;;;;;160.48;56.75;;;;;;;-13.24;77.67;97856.06;1736699;82;21313;-57
2021/12/27 00:57:24;;;;;;;113.15;46.05;;;;;;;-13.18;78.68;97855.47;1724090;82;21004;-57
2021/12/27 00:59:51;;;;;;;119.17;46.00;;;;;;;-13.13;77.76;97856.39;1717662;83;21476;-57
2021/12/27 01:02:18;;;;;;;150.57;54.83;;;;;;;-13.16;77.75;97860.55;1730790;81;20961;-57
2021/12/27 01:04:44;;;;;;;166.35;59.77;;;;;;;-13.23;77.93;97864.72;1736654;82;20949;-57
2021/12/27 01:07:12;;;;;;;151.07;48.70;;;;;;;-13.21;77.94;97859.70;1736556;82;21393;-57
2021/12/27 01:12:35;;;;;;;127.53;48.98;;;;;;;-13.15;77.15;97856.53;1736612;82;21524;-57
2021/12/27 01:17:48;;;;;;;163.72;56.00;;;;;;;-13.14;76.74;97859.48;1736508;82;21013;-57
2021/12/27 01:20:21;;;;;;;111.85;42.35;;;;;;;-13.10;76.58;97853.50;1736408;82;21015;-57
2021/12/27 01:22:50;;;;;;;156.15;60.95;;;;;;;-13.15;76.40;97859.14;1736405;82;21394;-58
2021/12/27 01:25:16;;;;;;;118.33;44.18;;;;;;;-13.17;76.40;97854.99;1736689;82;21514;-58
2021/12/27 01:27:43;;;;;;;121.37;47.48;;;;;;;-13.11;76.65;97852.67;1736561;82;20997;-57
2021/12/27 01:30:19;;;;;;;144.00;51.92;;;;;;;-13.11;76.69;97864.89;1736478;82;20989;-56
2021/12/27 01:32:51;;;;;;;143.75;48.90;;;;;;;-13.18;77.08;97847.66;1722306;82;21408;-57
2021/12/27 01:35:16;;;;;;;136.68;50.28;;;;;;;-13.16;77.04;97856.19;1717465;82;20996;-57
2021/12/27 01:37:44;;;;;;;141.62;46.75;;;;;;;-13.13;77.06;97845.95;1748623;82;21044;-57
2021/12/27 01:40:12;;;;;;;119.28;44.15;;;;;;;-13.09;76.85;97846.84;1736755;82;21734;-58
2021/12/27 01:43:08;;;;;;;108.83;37.55;;;;;;;-13.23;76.38;97848.58;1720747;82;21468;-58
2021/12/27 01:45:41;;;;;;;110.65;42.58;;;;;;;-13.21;76.49;97852.36;1740281;82;21572;-57
2021/12/27 01:48:08;;;;;;;94.15;35.78;;;;;;;-13.14;77.48;97848.22;1773402;80;20938;-57
2021/12/27 01:50:41;;;;;;;106.35;40.92;;;;;;;-13.07;77.01;97844.56;1777913;80;21001;-57
2021/12/27 01:53:09;;;;;;;109.37;38.17;;;;;;;-13.12;77.56;97836.69;1746584;80;21218;-57
2021/12/27 01:55:36;;;;;;;104.58;34.88;;;;;;;-13.06;77.50;97837.94;1751525;81;21444;-58
2021/12/27 01:58:03;;;;;;;105.95;41.42;;;;;;;-13.00;76.92;97837.85;1747148;80;22118;-57
2021/12/27 02:00:30;;;;;;;99.83;36.17;;;;;;;-13.06;76.98;97834.50;1745478;81;20954;-57
2021/12/27 02:02:57;;;;;;;125.00;43.50;;;;;;;-13.05;76.71;97827.84;1744424;81;21060;-57
2021/12/27 02:05:24;;;;;;;128.68;48.28;;;;;;;-13.17;76.34;97824.52;1745242;81;21051;-57
2021/12/27 02:07:51;;;;;;;119.55;44.45;;;;;;;-13.08;76.71;97829.39;1748959;81;20968;-57
2021/12/27 02:10:18;;;;;;;123.97;47.03;;;;;;;-13.04;76.75;97829.48;1752015;81;21356;-57
2021/12/27 02:12:45;;;;;;;124.67;48.23;;;;;;;-13.08;76.06;97828.09;1742026;82;21378;-57
2021/12/27 02:15:12;;;;;;;115.28;39.30;;;;;;;-13.16;76.47;97820.98;1752174;81;20999;-57
2021/12/27 02:17:42;;;;;;;133.57;47.13;;;;;;;-13.26;76.24;97820.15;1750704;81;20966;-58
2021/12/27 02:20:21;;;;;;;99.92;36.00;;;;;;;-13.22;76.40;97816.33;1752052;81;21060;-57
2021/12/27 02:22:48;;;;;;;32.35;13.35;;;;;;;-13.18;76.51;97822.05;1751660;81;20992;-57
2021/12/27 02:25:15;;;;;;;102.58;38.92;;;;;;;-13.15;76.72;97820.50;1751967;81;20941;-57
2021/12/27 02:27:43;;;;;;;116.40;37.42;;;;;;;-13.28;76.66;97829.08;1752210;82;21006;-57
2021/12/27 02:30:14;;;;;;;110.90;42.55;;;;;;;-13.25;77.41;97823.58;1752213;81;21158;-57
2021/12/27 02:32:54;;;;;;;110.08;40.58;;;;;;;-13.19;77.50;97815.22;1745533;82;20988;-57
2021/12/27 02:35:34;;;;;;;109.87;36.45;;;;;;;-13.18;77.10;97820.75;1745701;81;20959;-58
2021/12/27 02:38:02;;;;;;;116.55;43.10;;;;;;;-13.16;77.08;97823.59;1750850;80;20976;-58
2021/12/27 02:40:30;;;;;;;102.45;38.92;;;;;;;-13.21;76.84;97816.67;1752303;81;20904;-58
2021/12/27 02:43:10;;;;;;;119.57;41.37;;;;;;;-13.17;76.82;97815.39;1753861;80;20996;-58
2021/12/27 02:45:47;;;;;;;123.25;43.83;;;;;;;-13.30;76.05;97810.97;1752087;80;21012;-58
2021/12/27 02:48:18;;;;;;;135.85;47.00;;;;;;;-13.40;75.80;97815.34;1776576;80;21407;-58
2021/12/27 02:50:46;;;;;;;106.87;40.00;;;;;;;-13.41;76.46;97809.31;1776169;80;20980;-57
2021/12/27 02:53:13;;;;;;;94.32;37.75;;;;;;;-13.47;76.43;97811.63;1753899;80;20944;-57
2021/12/27 02:55:40;;;;;;;118.57;48.02;;;;;;;-13.46;76.71;97806.75;1753022;80;20987;-58
2021/12/27 02:58:07;;;;;;;133.57;48.50;;;;;;;-13.32;76.95;97808.16;1776876;80;20961;-57
2021/12/27 03:00:44;;;;;;;172.80;65.37;;;;;;;-13.28;77.45;97806.43;1777782;80;22042;-57
2021/12/27 03:03:11;;;;;;;169.62;62.13;;;;;;;-13.23;77.15;97807.34;1747728;80;21039;-58
2021/12/27 03:05:38;;;;;;;138.57;61.13;;;;;;;-13.21;76.74;97807.54;1745041;81;21013;-57
2021/12/27 03:08:05;;;;;;;136.37;56.05;;;;;;;-13.21;76.48;97797.11;1740572;82;20958;-57
2021/12/27 03:10:33;;;;;;;141.65;44.15;;;;;;;-13.22;76.92;97806.37;1777858;80;21001;-57
2021/12/27 03:13:02;;;;;;;154.50;52.43;;;;;;;-13.19;76.64;97804.27;1745604;80;22148;-58
2021/12/27 03:15:29;;;;;;;111.97;39.50;;;;;;;-13.18;77.11;97812.44;1745527;81;21024;-57
2021/12/27 03:17:56;;;;;;;117.65;47.17;;;;;;;-13.22;76.62;97807.20;1751815;81;20969;-58
2021/12/27 03:20:26;;;;;;;111.47;45.05;;;;;;;-13.11;76.95;97808.81;1751948;81;21421;-58
2021/12/27 03:22:53;;;;;;;107.55;38.50;;;;;;;-13.23;75.99;97806.03;1752001;81;21047;-58
2021/12/27 03:25:23;;;;;;;91.08;34.00;;;;;;;-13.34;75.76;97805.66;1752156;81;21337;-58
2021/12/27 03:27:50;;;;;;;89.40;33.95;;;;;;;-13.39;76.03;97802.66;1749739;82;21043;-57
2021/12/27 03:30:21;;;;;;;98.65;33.67;;;;;;;-13.38;75.98;97801.69;1752152;81;21031;-58
2021/12/27 03:32:48;;;;;;;73.05;28.77;;;;;;;-13.33;76.04;97796.05;1744713;82;21379;-58
2021/12/27 03:35:18;;;;;;;95.22;34.30;;;;;;;-13.33;76.13;97792.96;1745386;81;20973;-58
2021/12/27 03:37:47;;;;;;;77.87;29.27;;;;;;;-13.34;76.57;97791.31;1771280;80;21030;-57
2021/12/27 03:40:15;;;;;;;105.15;38.73;;;;;;;-13.30;76.63;97799.23;1777695;80;21017;-57
2021/12/27 03:42:42;;;;;;;96.25;34.40;;;;;;;-13.28;77.42;97800.39;1755424;80;21390;-58
2021/12/27 03:45:09;;;;;;;89.17;33.28;;;;;;;-13.13;77.31;97805.52;1751951;81;20915;-57
2021/12/27 03:47:36;;;;;;;107.83;33.42;;;;;;;-13.07;77.23;97806.30;1753644;80;21012;-57
2021/12/27 03:50:05;;;;;;;90.38;33.58;;;;;;;-13.04;76.96;97800.80;1752119;81;21312;-58
2021/12/27 03:52:32;;;;;;;77.35;26.93;;;;;;;-13.03;77.08;97799.83;1751690;80;21435;-57
2021/12/27 03:54:59;;;;;;;92.33;31.30;;;;;;;-13.01;76.97;97805.72;1752045;81;20904;-58
2021/12/27 03:57:26;;;;;;;86.97;32.23;;;;;;;-13.06;76.36;97808.42;1751824;80;20953;-57
2021/12/27 04:00:15;;;;;;;92.08;33.78;;;;;;;-13.07;76.64;97806.30;1752030;81;21003;-58
2021/12/27 04:02:22;;;;;;;85.85;33.55;;;;;;;-13.05;77.21;97803.06;1763059;80;21454;-57
2021/12/27 04:04:49;;;;;;;93.52;31.65;;;;;;;-13.08;76.66;97800.70;1777499;80;21375;-57
2021/12/27 04:07:16;;;;;;;107.70;36.50;;;;;;;-13.00;76.88;97802.62;1756823;80;21481;-57
2021/12/27 04:09:43;;;;;;;101.70;34.38;;;;;;;-13.04;76.58;97801.27;1745296;81;20961;-57
2021/12/27 04:12:10;;;;;;;94.90;36.33;;;;;;;-13.03;76.49;97802.44;1741323;81;21023;-57
2021/12/27 04:14:37;;;;;;;91.00;31.37;;;;;;;-13.02;76.39;97800.65;1777116;80;21863;-57
2021/12/27 04:17:04;;;;;;;104.65;41.10;;;;;;;-13.16;75.71;97804.02;1754451;80;21491;-57
2021/12/27 04:19:31;;;;;;;97.33;38.13;;;;;;;-13.21;75.41;97800.20;1745477;81;21291;-57
2021/12/27 04:21:58;;;;;;;62.98;25.55;;;;;;;-13.26;76.34;97795.38;1743950;81;20964;-57
2021/12/27 04:24:25;;;;;;;70.62;28.77;;;;;;;-13.18;76.37;97798.58;1745941;81;21024;-57
2021/12/27 04:26:52;;;;;;;86.53;29.45;;;;;;;-13.27;76.30;97792.42;1743827;81;21429;-57
2021/12/27 04:29:19;;;;;;;65.85;27.70;;;;;;;-13.19;76.79;97797.76;1746017;81;20925;-57
2021/12/27 04:31:45;;;;;;;82.12;35.95;;;;;;;-13.17;76.81;97800.22;1714208;83;21390;-57
2021/12/27 04:34:12;;;;;;;81.57;33.30;;;;;;;-13.21;77.57;97801.50;1745607;82;20992;-57
2021/12/27 04:36:39;;;;;;;75.52;33.65;;;;;;;-13.17;77.81;97798.92;1743262;81;20926;-57
2021/12/27 04:39:08;;;;;;;76.17;31.20;;;;;;;-13.07;77.39;97805.44;1740940;81;21240;-57
2021/12/27 04:41:35;;;;;;;85.97;34.67;;;;;;;-13.08;77.31;97800.70;1742396;82;21523;-58
2021/12/27 04:44:03;;;;;;;82.33;32.00;;;;;;;-13.11;77.16;97798.38;1752235;81;21472;-58
2021/12/27 04:46:29;;;;;;;94.50;33.05;;;;;;;-13.12;76.54;97798.05;1751398;82;20945;-57
2021/12/27 04:48:56;;;;;;;98.03;35.05;;;;;;;-13.18;76.37;97798.09;1752328;82;21013;-58
2021/12/27 04:51:23;;;;;;;100.10;38.92;;;;;;;-13.16;76.56;97798.81;1751284;81;22020;-57
2021/12/27 04:53:50;;;;;;;93.42;33.05;;;;;;;-13.09;76.78;97797.76;1752199;82;21471;-57
2021/12/27 04:56:17;;;;;;;96.47;37.25;;;;;;;-13.11;76.36;97804.90;1751856;81;21461;-57
2021/12/27 04:58:46;;;;;;;80.10;28.98;;;;;;;-13.13;76.01;97801.61;1752266;82;21000;-58
2021/12/27 05:01:14;;;;;;;96.80;39.60;;;;;;;-13.11;76.28;97811.42;1748061;81;20997;-57
2021/12/27 05:03:40;;;;;;;102.05;41.75;;;;;;;-13.23;76.74;97809.47;1752325;81;21398;-57
2021/12/27 05:06:07;;;;;;;119.62;41.92;;;;;;;-13.25;77.03;97815.75;1751927;81;20965;-57
2021/12/27 05:08:34;;;;;;;120.55;48.95;;;;;;;-13.21;77.44;97804.11;1752176;82;21055;-57
2021/12/27 05:11:01;;;;;;;109.12;39.40;;;;;;;-13.15;77.22;97804.84;1752064;81;21111;-57
2021/12/27 05:13:31;;;;;;;143.20;51.50;;;;;;;-13.18;76.42;97796.80;1711589;83;21411;-57
2021/12/27 05:15:59;;;;;;;102.20;39.25;;;;;;;-13.15;76.81;97808.76;1711042;82;21341;-57
2021/12/27 05:18:26;;;;;;;113.57;43.73;;;;;;;-13.10;76.93;97807.37;1745870;80;20956;-58
2021/12/27 05:20:53;;;;;;;110.17;41.77;;;;;;;-13.12;76.83;97815.00;1745709;80;21007;-58
2021/12/27 05:23:20;;;;;;;111.50;47.93;;;;;;;-13.04;77.16;97813.02;1740202;81;21068;-58
2021/12/27 05:25:47;;;;;;;94.15;36.28;;;;;;;-13.09;76.96;97801.67;1776014;80;21434;-58
2021/12/27 05:28:14;;;;;;;107.63;42.78;;;;;;;-13.13;76.68;97803.73;1744154;80;21454;-58
2021/12/27 05:30:43;;;;;;;117.28;42.45;;;;;;;-13.12;76.67;97804.08;1752032;82;20984;-57
2021/12/27 05:33:10;;;;;;;;;;;;;;;-13.21;76.33;97801.50;1739145;82;21060;-58
2021/12/27 05:35:37;;;;;;;122.50;44.53;;;;;;;-13.23;76.19;97802.12;1736429;81;20611;-57
2021/12/27 05:38:04;;;;;;;108.83;42.62;;;;;;;-13.19;76.47;97809.49;1720736;82;21432;-58
2021/12/27 05:40:31;;;;;;;102.70;40.28;;;;;;;-13.13;77.04;97808.13;1740069;82;21373;-57
2021/12/27 05:42:58;;;;;;;121.33;42.25;;;;;;;-13.16;76.49;97810.55;1752920;80;21004;-58
2021/12/27 05:45:24;;;;;;;100.25;40.50;;;;;;;-13.21;76.40;97806.72;1747385;81;20991;-58
2021/12/27 05:47:52;;;;;;;110.05;41.70;;;;;;;-13.23;77.04;97803.43;1718717;82;21429;-57
2021/12/27 05:50:19;;;;;;;99.07;40.85;;;;;;;-13.17;76.78;97810.66;1718391;82;21346;-57
2021/12/27 05:52:46;;;;;;;125.97;39.40;;;;;;;-13.14;76.89;97812.53;1734644;81;21385;-57
2021/12/27 05:55:13;;;;;;;117.08;44.85;;;;;;;-13.12;76.77;97807.17;1736654;82;20993;-57
2021/12/27 05:57:40;;;;;;;202.57;77.50;;;;;;;-13.18;76.96;97808.53;1736325;82;21026;-58
2021/12/27 06:00:10;;;;;;;235.70;83.72;;;;;;;-13.10;77.15;97815.67;1736545;82;20977;-58
2021/12/27 06:02:36;;;;;;;200.20;72.17;;;;;;;-13.10;76.92;97812.59;1735873;81;21407;-57
2021/12/27 06:05:05;;;;;;;170.82;69.47;;;;;;;-13.06;77.08;97818.86;1738363;81;21405;-57
2021/12/27 06:07:31;;;;;;;141.70;59.95;;;;;;;-13.00;77.15;97814.37;1736003;81;21441;-58
2021/12/27 06:09:58;;;;;;;99.22;42.10;;;;;;;-12.96;77.00;97815.77;1736864;81;20957;-58
2021/12/27 06:12:25;;;;;;;112.15;46.73;;;;;;;-12.92;76.82;97814.03;1737416;81;21395;-57
2021/12/27 06:14:52;;;;;;;102.12;41.70;;;;;;;-13.01;76.44;97814.86;1736399;82;20980;-58
2021/12/27 06:17:19;;;;;;;103.20;42.10;;;;;;;-13.03;76.75;97818.09;1731271;81;21014;-57
2021/12/27 06:19:46;;;;;;;115.42;45.08;;;;;;;-13.11;76.63;97818.77;1733601;81;20957;-57
2021/12/27 06:22:13;;;;;;;96.17;38.42;;;;;;;-13.22;76.23;97822.02;1734673;82;21056;-58
2021/12/27 06:24:40;;;;;;;91.90;36.93;;;;;;;-13.17;76.78;97823.70;1731550;82;21215;-57
2021/12/27 06:27:07;;;;;;;120.47;45.23;;;;;;;-13.17;76.92;97818.48;1725616;82;22014;-58
2021/12/27 06:29:34;;;;;;;114.85;42.95;;;;;;;-13.20;76.84;97817.01;1736647;82;21419;-57
2021/12/27 06:32:00;;;;;;;102.35;40.65;;;;;;;-13.13;77.41;97816.78;1734172;81;21009;-57
2021/12/27 06:34:27;;;;;;;127.78;48.70;;;;;;;-13.07;77.28;97814.12;1727535;81;20980;-57
2021/12/27 06:36:54;;;;;;;124.45;47.35;;;;;;;-13.08;76.66;97804.62;1723975;82;20976;-57
2021/12/27 06:39:21;;;;;;;123.70;49.90;;;;;;;-13.10;76.76;97812.59;1748005;81;21500;-57
2021/12/27 06:41:48;;;;;;;115.90;47.48;;;;;;;-13.06;76.65;97813.64;1736249;82;21465;-58
2021/12/27 06:44:15;;;;;;;114.35;48.38;;;;;;;-13.01;76.99;97820.07;1732105;82;20988;-57
2021/12/27 06:46:42;;;;;;;158.87;66.17;;;;;;;-13.00;76.12;97823.02;1717916;82;20964;-57
2021/12/27 06:49:09;;;;;;;97.85;36.33;;;;;;;-13.03;76.37;97823.78;1744044;81;21020;-57
2021/12/27 06:51:36;;;;;;;198.45;78.05;;;;;;;-12.93;76.91;97818.91;1732435;82;21454;-58
2021/12/27 06:54:03;;;;;;;158.00;60.85;;;;;;;-12.98;77.18;97808.08;1717734;83;21407;-57
2021/12/27 06:56:30;;;;;;;126.60;51.45;;;;;;;-12.89;77.14;97808.55;1717756;83;21424;-58
2021/12/27 06:58:57;;;;;;;124.78;46.70;;;;;;;-12.93;77.04;97809.77;1738024;82;21430;-57
2021/12/27 07:01:24;;;;;;;120.75;50.78;;;;;;;-12.94;76.79;97810.73;1709814;83;20972;-57
2021/12/27 07:03:50;;;;;;;134.65;53.13;;;;;;;-12.92;76.74;97814.03;1732310;80;20959;-57
2021/12/27 07:06:17;;;;;;;117.90;49.20;;;;;;;-12.91;76.60;97810.94;1724233;82;21393;-57
2021/12/27 07:08:47;;;;;;;137.32;52.15;;;;;;;-12.86;76.64;97815.27;1721260;82;21020;-57
2021/12/27 07:11:14;;;;;;;111.88;44.35;;;;;;;-12.90;76.71;97804.30;1751068;80;21005;-57
2021/12/27 07:13:41;;;;;;;136.52;51.40;;;;;;;-12.78;76.97;97798.45;1737963;82;20954;-57
2021/12/27 07:16:07;;;;;;;141.12;57.33;;;;;;;-12.82;76.78;97799.22;1746954;80;21001;-57
2021/12/27 07:18:34;;;;;;;138.40;59.77;;;;;;;-12.82;76.26;97799.22;1727642;81;22130;-57
2021/12/27 07:21:01;;;;;;;135.25;59.98;;;;;;;-12.76;76.39;97797.00;1753094;80;22705;-57
2021/12/27 07:23:28;;;;;;;135.78;59.80;;;;;;;-12.76;75.87;97798.30;1739183;80;21088;-58
2021/12/27 07:25:55;;;;;;;174.62;70.90;;;;;;;-12.68;76.21;97794.03;1727169;81;21063;-58
2021/12/27 07:28:22;;;;;;;123.00;48.70;;;;;;;-12.56;76.53;97794.23;1749310;81;21003;-58
2021/12/27 07:30:49;;;;;;;259.18;96.53;;;;;;;-12.50;76.33;97794.62;1725166;81;21387;-57
2021/12/27 07:33:16;;;;;;;415.38;160.12;;;;;;;-12.57;76.14;97792.56;1743358;81;20969;-58
2021/12/27 07:35:43;;;;;;;185.32;69.00;;;;;;;-12.48;76.26;97801.34;1739876;80;21756;-58
2021/12/27 07:38:10;;;;;;;180.20;73.70;;;;;;;-12.47;75.54;97799.55;1708967;82;20965;-58
2021/12/27 07:40:37;;;;;;;157.90;68.50;;;;;;;-12.50;75.58;97794.62;1712788;81;21460;-58
2021/12/27 07:43:04;;;;;;;199.07;81.87;;;;;;;-12.49;75.52;97794.47;1700440;82;21120;-57
2021/12/27 07:45:31;;;;;;;174.23;72.50;;;;;;;-12.37;76.04;97792.55;1711673;82;21076;-58
2021/12/27 07:47:58;;;;;;;225.47;90.22;;;;;;;-12.26;75.93;97786.66;1698027;83;21115;-57
2021/12/27 07:50:25;;;;;;;140.50;55.28;;;;;;;-12.15;76.03;97779.12;1743767;80;20941;-57
2021/12/27 07:52:52;;;;;;;188.47;76.12;;;;;;;-11.92;76.44;97782.69;1709823;82;21550;-57
2021/12/27 07:55:19;;;;;;;208.25;79.58;;;;;;;-11.99;75.63;97775.91;1727918;81;21319;-57
2021/12/27 07:57:45;;;;;;;176.60;72.60;;;;;;;-11.87;76.29;97775.25;1733091;81;21186;-57
2021/12/27 08:00:14;;;;;;;214.80;82.60;;;;;;;-11.73;76.27;97770.79;1733946;81;21036;-58
2021/12/27 08:02:41;;;;;;;216.53;85.77;;;;;;;-11.71;75.90;97774.89;1728889;81;21016;-57
2021/12/27 08:05:08;;;;;;;173.25;70.15;;;;;;;-11.69;75.91;97766.45;1725922;81;21012;-58
2021/12/27 08:07:35;;;;;;;208.13;78.35;;;;;;;-11.55;76.19;97755.13;1731361;81;21721;-58
2021/12/27 08:10:02;;;;;;;364.25;168.90;;;;;;;-11.62;74.81;97757.99;1731003;81;21097;-58
2021/12/27 08:12:29;;;;;;;169.55;73.20;;;;;;;-11.64;75.17;97755.53;1720388;81;21072;-58
2021/12/27 08:14:56;;;;;;;157.10;65.17;;;;;;;-11.66;75.81;97749.15;1716731;81;21070;-58
2021/12/27 08:17:23;;;;;;;59.70;23.52;;;;;;;-11.72;75.82;97748.91;1743556;80;21457;-58
2021/12/27 08:19:50;;;;;;;125.53;51.40;;;;;;;-11.60;76.24;97744.31;1733463;82;21052;-58
2021/12/27 08:22:17;;;;;;;110.95;38.40;;;;;;;-11.64;76.17;97742.45;1732224;81;21072;-57
2021/12/27 08:24:44;;;;;;;131.93;55.98;;;;;;;-11.66;75.96;97741.30;1731455;81;21036;-57
2021/12/27 08:27:11;;;;;;;102.53;45.80;;;;;;;-11.76;75.80;97730.58;1738593;81;21595;-58
2021/12/27 08:29:38;;;;;;;110.12;50.28;;;;;;;-11.76;75.84;97730.09;1733353;82;21136;-58
2021/12/27 08:32:05;;;;;;;180.52;81.32;;;;;;;-11.85;75.83;97724.47;1726024;81;21450;-57
2021/12/27 08:34:32;;;;;;;142.87;62.63;;;;;;;-11.83;76.12;97726.93;1709290;82;21071;-58
2021/12/27 08:36:59;;;;;;;151.65;61.20;;;;;;;-11.63;76.38;97731.03;1730858;80;21032;-58
2021/12/27 08:39:26;;;;;;;136.95;57.88;;;;;;;-11.38;76.55;97739.45;1732272;82;21111;-58
2021/12/27 08:41:53;;;;;;;131.37;57.67;;;;;;;-11.08;76.74;97744.00;1723553;81;21134;-58
2021/12/27 08:44:20;;;;;;;141.90;63.78;;;;;;;-10.96;75.32;97740.16;1746177;80;21763;-58
2021/12/27 08:46:47;;;;;;;160.90;60.80;;;;;;;-10.75;75.88;97743.78;1731171;81;21397;-58
2021/12/27 08:49:14;;;;;;;171.55;71.05;;;;;;;-10.57;74.88;97747.17;1732694;81;21064;-58
2021/12/27 08:51:42;;;;;;;157.95;62.23;;;;;;;-10.42;75.23;97744.83;1726686;81;21064;-57
2021/12/27 08:54:08;;;;;;;93.37;42.78;;;;;;;-10.20;75.23;97732.13;1728019;80;21083;-58
2021/12/27 08:56:38;;;;;;;149.12;61.70;;;;;;;-10.07;74.76;97725.98;1728370;81;21052;-58
2021/12/27 08:59:04;;;;;;;;;;;;;;;-9.91;74.97;97726.51;1710235;82;22707;-58
2021/12/27 09:01:31;;;;;;;134.57;53.65;;;;;;;-9.91;73.49;97731.30;1742103;80;20183;-58
2021/12/27 09:03:58;;;;;;;148.07;59.25;;;;;;;-9.93;73.24;97723.23;1746415;79;21669;-58
2021/12/27 09:06:25;;;;;;;141.47;55.12;;;;;;;-9.86;73.82;97718.52;1746609;79;21422;-58
2021/12/27 09:08:52;;;;;;;277.18;109.90;;;;;;;-9.78;73.23;97713.79;1739068;81;21040;-57
2021/12/27 09:11:19;;;;;;;139.03;57.25;;;;;;;-9.67;74.51;97712.17;1745947;80;21439;-58
2021/12/27 09:13:46;;;;;;;138.07;53.55;;;;;;;-9.75;72.67;97709.03;1715939;81;21013;-58
2021/12/27 09:16:13;;;;;;;184.13;73.12;;;;;;;-9.57;74.39;97710.72;1739738;80;21035;-58
2021/12/27 09:18:40;;;;;;;129.97;50.20;;;;;;;-9.42;74.43;97711.25;1741078;80;21000;-58
2021/12/27 09:21:07;;;;;;;129.80;49.30;;;;;;;-9.39;72.79;97707.01;1745554;80;20983;-58
2021/12/27 09:23:34;;;;;;;110.65;45.00;;;;;;;-9.33;74.30;97702.89;1740115;81;20980;-58
2021/12/27 09:26:01;;;;;;;122.85;52.60;;;;;;;-9.34;73.58;97709.63;1716622;81;21639;-58
2021/12/27 09:28:28;;;;;;;89.60;37.10;;;;;;;-9.29;73.59;97698.16;1742864;80;21004;-57
2021/12/27 09:30:56;;;;;;;122.20;51.60;;;;;;;-9.18;74.62;97696.03;1741683;80;21876;-58
2021/12/27 09:33:22;;;;;;;125.97;51.05;;;;;;;-9.28;73.46;97691.44;1744225;80;22028;-59
2021/12/27 09:35:49;;;;;;;137.22;55.55;;;;;;;-9.20;74.11;97690.13;1716723;82;21385;-58
2021/12/27 09:38:16;;;;;;;120.05;50.30;;;;;;;-9.05;74.50;97692.11;1741582;80;22050;-58
2021/12/27 09:40:43;;;;;;;106.00;46.15;;;;;;;-8.94;74.36;97693.09;1751443;79;21035;-58
2021/12/27 09:43:10;;;;;;;118.90;46.63;;;;;;;-8.86;74.12;97696.53;1736739;80;21051;-58
2021/12/27 09:45:37;;;;;;;123.90;45.83;;;;;;;-8.82;73.92;97698.32;1715877;81;21320;-57
2021/12/27 09:48:04;;;;;;;133.05;50.73;;;;;;;-8.77;73.98;97696.03;1718699;82;22237;-58
2021/12/27 09:50:39;;;;;;;128.30;51.60;;;;;;;-8.65;74.55;97692.56;1715611;81;21545;-58
2021/12/27 09:53:06;;;;;;;115.20;53.68;;;;;;;-8.69;72.56;97694.71;1748699;80;21075;-58
2021/12/27 09:55:33;;;;;;;126.38;54.77;;;;;;;-8.75;72.77;97686.17;1747568;79;21050;-57
2021/12/27 09:58:00;;;;;;;135.28;54.25;;;;;;;-8.68;73.55;97689.78;1739046;80;21475;-58
2021/12/27 10:00:27;;;;;;;101.67;39.83;;;;;;;-8.57;73.72;97693.37;1740892;80;21011;-58
2021/12/27 10:02:56;;;;;;;104.07;37.78;;;;;;;-8.57;73.03;97689.42;1708334;82;21060;-58
2021/12/27 10:05:24;;;;;;;103.17;43.58;;;;;;;-8.51;73.33;97687.12;1732525;80;21182;-57
2021/12/27 10:07:51;;;;;;;91.70;37.98;;;;;;;-8.49;73.21;97684.65;1738470;80;21048;-58
2021/12/27 10:10:18;;;;;;;89.20;36.65;;;;;;;-8.36;73.47;97682.83;1705085;82;21015;-58
2021/12/27 10:12:46;;;;;;;107.07;46.23;;;;;;;-8.38;72.88;97684.28;1729379;81;22638;-58
2021/12/27 10:15:16;;;;;;;111.35;46.75;;;;;;;-8.42;72.84;97677.73;1726167;82;21487;-58
2021/12/27 10:17:44;;;;;;;120.28;50.03;;;;;;;-8.24;73.08;97672.23;1726429;81;21032;-58
2021/12/27 10:20:22;;;;;;;114.40;52.35;;;;;;;-8.25;73.02;97674.54;1750306;80;21063;-58
2021/12/27 10:22:51;;;;;;;73.17;32.15;;;;;;;-8.24;72.87;97670.92;1741587;80;21055;-58
2021/12/27 10:25:24;;;;;;;129.78;58.80;;;;;;;-8.14;73.13;97666.27;1742198;81;20995;-58
2021/12/27 10:27:55;;;;;;;108.25;58.50;;;;;;;-7.90;73.38;97664.54;1715470;82;21132;-58
2021/12/27 10:30:29;;;;;;;120.40;50.48;;;;;;;-7.71;73.79;97658.84;1734214;82;20993;-58
2021/12/27 10:33:14;;;;;;;105.22;47.17;;;;;;;-7.42;74.34;97667.41;1733528;82;21103;-58
2021/12/27 10:35:51;;;;;;;136.60;55.08;;;;;;;-7.16;73.89;97663.92;1728058;82;21726;-58
2021/12/27 10:38:31;;;;;;;135.32;54.42;;;;;;;-7.11;72.24;97672.09;1726283;80;20955;-58
2021/12/27 10:41:11;;;;;;;100.27;43.05;;;;;;;-6.89;73.58;97663.05;1739874;80;21094;-58
2021/12/27 10:43:50;;;;;;;94.15;42.65;;;;;;;-6.65;73.98;97665.46;1746297;80;21618;-58
2021/12/27 10:46:18;;;;;;;98.00;47.10;;;;;;;-6.61;73.74;97651.41;1738893;81;21055;-58
2021/12/27 10:48:59;;;;;;;113.80;50.33;;;;;;;-6.51;73.38;97645.87;1737731;81;21691;-58
2021/12/27 10:51:27;;;;;;;102.80;46.33;;;;;;;-6.44;72.95;97644.97;1723153;82;21091;-58
2021/12/27 10:53:59;;;;;;;79.93;36.53;;;;;;;-6.45;71.00;97639.89;1712820;83;21025;-58
2021/12/27 10:56:30;;;;;;;98.22;41.53;;;;;;;-6.39;71.52;97648.40;1713222;82;23417;-58
2021/12/27 10:58:59;;;;;;;95.28;44.70;;;;;;;-6.47;71.02;97643.20;1709467;83;21705;-58
2021/12/27 11:01:28;;;;;;;85.38;39.42;;;;;;;-6.60;70.86;97638.05;1714093;82;21574;-57
2021/12/27 11:04:00;;;;;;;93.12;42.50;;;;;;;-6.52;71.31;97633.69;1711334;83;21182;-58
2021/12/27 11:06:30;;;;;;;85.90;36.53;;;;;;;-6.34;72.48;97627.05;1714390;82;21118;-58
2021/12/27 11:08:58;;;;;;;97.65;38.00;;;;;;;-6.16;72.65;97624.05;1715419;81;21130;-58
2021/12/27 11:11:25;;;;;;;83.15;37.42;;;;;;;-6.06;72.39;97619.83;1735352;80;21100;-58
2021/12/27 11:13:55;;;;;;;85.03;38.58;;;;;;;-6.01;71.95;97616.12;1716880;81;21771;-58
2021/12/27 11:16:22;;;;;;;85.75;36.70;;;;;;;-6.11;70.22;97611.13;1690227;83;21024;-58